Time;durP1;ratioP1;P1;durP2;ratioP2;P2;SDS_P1;SDS_P2;PMS_P1;PMS_P2;Temp;Humidity;BMP_temperature;BMP_pressure;BME280_temperature;BME280_humidity;BME280_pressure;Samples;Min_cycle;Max_cycle;Signal;HPM_P1;HPM_P2
2023/03/22 00:00:52;;;;;;;10.57;2.78;;;;;;;;;;4947527;28;25071;-71
2023/03/22 00:03:19;;;;;;;11.88;2.92;;;;;;;;;;4954836;28;25132;-74
2023/03/22 00:05:45;;;;;;;5.57;2.53;;;;;;;;;;4943814;28;25077;-73
2023/03/22 00:08:12;;;;;;;14.73;2.47;;;;;;;;;;4956961;28;25112;-74
2023/03/22 00:10:39;;;;;;;7.25;2.22;;;;;;;;;;4953486;28;25063;-73
2023/03/22 00:13:06;;;;;;;12.65;2.13;;;;;;;;;;4952796;28;25127;-73
2023/03/22 00:15:32;;;;;;;12.75;2.30;;;;;;;;;;4961337;28;25081;-74
2023/03/22 00:17:58;;;;;;;16.90;2.15;;;;;;;;;;4951989;28;25075;-74
2023/03/22 00:20:24;;;;;;;9.07;2.28;;;;;;;;;;4948090;28;25076;-73
2023/03/22 00:22:50;;;;;;;13.50;2.20;;;;;;;;;;4944729;28;25079;-73
2023/03/22 00:25:17;;;;;;;11.48;2.38;;;;;;;;;;4951234;28;25083;-73
2023/03/22 00:27:43;;;;;;;11.38;2.88;;;;;;;;;;4943015;28;25169;-72
2023/03/22 00:30:12;;;;;;;13.05;2.65;;;;;;;;;;4951238;28;25057;-73
2023/03/22 00:32:39;;;;;;;10.77;3.67;;;;;;;;;;4949412;28;25075;-73
2023/03/22 00:35:06;;;;;;;21.80;5.80;;;;;;;;;;4971615;28;25070;-72
2023/03/22 00:37:33;;;;;;;8.40;2.33;;;;;;;;;;4951059;28;25071;-73
2023/03/22 00:39:59;;;;;;;12.45;2.45;;;;;;;;;;4948586;28;25058;-74
2023/03/22 00:42:25;;;;;;;9.88;3.05;;;;;;;;;;4953276;28;25123;-72
2023/03/22 00:44:51;;;;;;;11.80;1.98;;;;;;;;;;5001691;28;25084;-76
2023/03/22 00:47:17;;;;;;;8.00;2.40;;;;;;;;;;4954154;28;25072;-73
2023/03/22 00:49:43;;;;;;;15.00;3.42;;;;;;;;;;4955038;28;25064;-74
2023/03/22 00:52:09;;;;;;;11.73;4.25;;;;;;;;;;4953113;28;25098;-74
2023/03/22 00:54:35;;;;;;;12.45;2.33;;;;;;;;;;4953254;28;25063;-72
2023/03/22 00:57:01;;;;;;;6.35;1.70;;;;;;;;;;4945697;28;25083;-74
2023/03/22 00:59:27;;;;;;;7.75;2.03;;;;;;;;;;4950099;28;25109;-73
2023/03/22 01:01:55;;;;;;;12.40;2.60;;;;;;;;;;4953999;28;25056;-71
2023/03/22 01:04:24;;;;;;;11.32;1.92;;;;;;;;;;4951282;28;25096;-75
2023/03/22 01:06:57;;;;;;;6.32;2.13;;;;;;;;;;4949259;28;25078;-73
2023/03/22 01:09:27;;;;;;;8.88;2.03;;;;;;;;;;4952610;28;25135;-72
2023/03/22 01:11:53;;;;;;;6.80;1.85;;;;;;;;;;4954731;28;25047;-73
2023/03/22 01:14:19;;;;;;;8.77;2.03;;;;;;;;;;4948895;28;25104;-70
2023/03/22 01:16:45;;;;;;;3.60;1.58;;;;;;;;;;4953015;28;25120;-72
2023/03/22 01:19:10;;;;;;;9.63;1.88;;;;;;;;;;4950743;28;25065;-72
2023/03/22 01:21:36;;;;;;;8.45;2.20;;;;;;;;;;4950226;28;25091;-73
2023/03/22 01:24:02;;;;;;;11.45;2.00;;;;;;;;;;4945350;28;25075;-73
2023/03/22 01:26:29;;;;;;;4.60;1.80;;;;;;;;;;4939416;28;25080;-74
2023/03/22 01:28:55;;;;;;;13.07;2.30;;;;;;;;;;4943778;28;25047;-72
2023/03/22 01:31:21;;;;;;;7.35;2.25;;;;;;;;;;4947326;28;25067;-74
2023/03/22 01:33:47;;;;;;;8.02;2.30;;;;;;;;;;4949477;28;25083;-71
2023/03/22 01:36:13;;;;;;;5.95;1.60;;;;;;;;;;4952429;28;25071;-74
2023/03/22 01:38:39;;;;;;;7.53;2.25;;;;;;;;;;4946530;28;25104;-73
2023/03/22 01:41:05;;;;;;;8.77;2.50;;;;;;;;;;4953967;28;25075;-72
2023/03/22 01:43:31;;;;;;;4.63;2.08;;;;;;;;;;4938141;28;25067;-73
2023/03/22 01:45:57;;;;;;;10.90;3.47;;;;;;;;;;4952878;28;25080;-71
2023/03/22 01:48:28;;;;;;;14.75;2.95;;;;;;;;;;4949364;28;25159;-72
2023/03/22 01:50:57;;;;;;;19.67;3.58;;;;;;;;;;4946304;28;25157;-71
2023/03/22 01:53:24;;;;;;;10.75;2.90;;;;;;;;;;4951381;28;25051;-71
2023/03/22 01:55:52;;;;;;;5.43;2.83;;;;;;;;;;4952415;28;25090;-73
2023/03/22 01:58:18;;;;;;;11.05;3.45;;;;;;;;;;4951754;28;25076;-70
2023/03/22 02:00:45;;;;;;;7.18;3.03;;;;;;;;;;4955670;28;25073;-73
2023/03/22 02:03:12;;;;;;;11.90;3.20;;;;;;;;;;4953337;28;25079;-73
2023/03/22 02:05:38;;;;;;;10.55;3.53;;;;;;;;;;4941700;28;25106;-73
2023/03/22 02:08:05;;;;;;;11.10;3.78;;;;;;;;;;4942907;28;25061;-72
2023/03/22 02:10:31;;;;;;;11.10;4.15;;;;;;;;;;4946688;28;25059;-73
2023/03/22 02:13:16;;;;;;;12.85;4.30;;;;;;;;;;4946441;28;25057;-74
2023/03/22 02:15:47;;;;;;;10.02;4.13;;;;;;;;;;4950370;28;25066;-74
2023/03/22 02:18:43;;;;;;;11.80;4.53;;;;;;;;;;4950812;28;25053;-73
2023/03/22 02:21:28;;;;;;;11.07;4.72;;;;;;;;;;4938072;28;25056;-73
2023/03/22 02:23:56;;;;;;;12.05;5.47;;;;;;;;;;4954304;28;25149;-73
2023/03/22 02:26:42;;;;;;;17.60;5.60;;;;;;;;;;4946085;28;25055;-72
2023/03/22 02:29:14;;;;;;;14.15;5.90;;;;;;;;;;4947603;28;25094;-75
2023/03/22 02:32:00;;;;;;;16.30;7.05;;;;;;;;;;4948140;28;25142;-73
2023/03/22 02:34:44;;;;;;;15.93;6.32;;;;;;;;;;4941897;28;25064;-73
2023/03/22 02:37:21;;;;;;;14.52;6.70;;;;;;;;;;4942854;28;25084;-73
2023/03/22 02:39:55;;;;;;;15.55;6.90;;;;;;;;;;4950432;28;25054;-72
2023/03/22 02:42:35;;;;;;;18.08;7.30;;;;;;;;;;4948771;28;25076;-72
2023/03/22 02:45:07;;;;;;;13.13;6.28;;;;;;;;;;4941772;28;25150;-71
2023/03/22 02:47:37;;;;;;;15.23;7.55;;;;;;;;;;4972205;28;25064;-73
2023/03/22 02:50:06;;;;;;;17.77;5.13;;;;;;;;;;4945463;28;25074;-73
2023/03/22 02:52:38;;;;;;;18.10;7.40;;;;;;;;;;4941728;28;25051;-72
2023/03/22 02:55:16;;;;;;;15.40;7.43;;;;;;;;;;4946362;28;25070;-73
2023/03/22 02:57:49;;;;;;;13.77;6.30;;;;;;;;;;4949689;28;25060;-73
2023/03/22 03:00:15;;;;;;;16.27;8.02;;;;;;;;;;4942851;28;25086;-73
2023/03/22 03:02:44;;;;;;;16.27;7.25;;;;;;;;;;4945249;28;25150;-71
2023/03/22 03:05:11;;;;;;;20.63;7.97;;;;;;;;;;4951646;28;25067;-74
2023/03/22 03:07:37;;;;;;;14.43;7.80;;;;;;;;;;4952296;28;25122;-73
2023/03/22 03:10:04;;;;;;;16.73;7.47;;;;;;;;;;4950492;28;25081;-73
2023/03/22 03:12:30;;;;;;;24.08;9.70;;;;;;;;;;4945654;28;25093;-74
2023/03/22 03:14:56;;;;;;;15.38;8.15;;;;;;;;;;4943602;28;25072;-70
2023/03/22 03:17:31;;;;;;;19.17;7.97;;;;;;;;;;4943374;28;25090;-71
2023/03/22 03:20:17;;;;;;;20.02;8.25;;;;;;;;;;4941305;28;25059;-72
2023/03/22 03:22:49;;;;;;;16.45;7.50;;;;;;;;;;4932895;28;25062;-73
2023/03/22 03:25:24;;;;;;;15.70;7.70;;;;;;;;;;4948051;28;25076;-73
2023/03/22 03:27:56;;;;;;;17.40;6.72;;;;;;;;;;4956593;28;25085;-71
2023/03/22 03:30:29;;;;;;;17.27;7.38;;;;;;;;;;4939385;28;25079;-73
2023/03/22 03:32:58;;;;;;;15.68;7.75;;;;;;;;;;4944289;28;25063;-73
2023/03/22 03:35:37;;;;;;;16.60;7.10;;;;;;;;;;4943065;28;25113;-73
2023/03/22 03:38:08;;;;;;;14.88;7.32;;;;;;;;;;4943651;28;25058;-73
2023/03/22 03:40:37;;;;;;;20.67;8.10;;;;;;;;;;4952066;28;25071;-72
2023/03/22 03:43:05;;;;;;;21.73;8.02;;;;;;;;;;4959756;28;25065;-72
2023/03/22 03:45:33;;;;;;;23.90;8.98;;;;;;;;;;4944827;28;25067;-72
2023/03/22 03:48:02;;;;;;;16.50;8.20;;;;;;;;;;4942129;28;25066;-73
2023/03/22 03:50:28;;;;;;;20.05;7.05;;;;;;;;;;4941523;28;25133;-75
2023/03/22 03:52:54;;;;;;;16.45;6.25;;;;;;;;;;4951199;28;25064;-72
2023/03/22 03:55:21;;;;;;;14.40;6.22;;;;;;;;;;4948950;28;25131;-73
2023/03/22 03:57:47;;;;;;;20.15;6.90;;;;;;;;;;4948085;28;25057;-73
2023/03/22 04:00:13;;;;;;;18.40;6.60;;;;;;;;;;4938455;28;25093;-74
2023/03/22 04:02:40;;;;;;;16.23;6.53;;;;;;;;;;4950075;28;25083;-73
2023/03/22 04:05:06;;;;;;;17.10;6.18;;;;;;;;;;4946382;28;25121;-72
2023/03/22 04:07:33;;;;;;;13.63;6.57;;;;;;;;;;4940800;28;25058;-70
2023/03/22 04:09:59;;;;;;;13.68;6.47;;;;;;;;;;4945699;28;25085;-72
2023/03/22 04:12:25;;;;;;;15.43;6.60;;;;;;;;;;4950520;28;25056;-72
2023/03/22 04:14:51;;;;;;;13.40;6.55;;;;;;;;;;4951582;28;25114;-71
2023/03/22 04:17:17;;;;;;;12.90;6.50;;;;;;;;;;4954392;28;25097;-74
2023/03/22 04:19:44;;;;;;;18.15;6.60;;;;;;;;;;4939048;28;25073;-75
2023/03/22 04:22:17;;;;;;;17.40;7.30;;;;;;;;;;4952403;28;25086;-71
2023/03/22 04:24:48;;;;;;;11.32;6.20;;;;;;;;;;4947896;28;25052;-72
2023/03/22 04:27:15;;;;;;;11.70;7.07;;;;;;;;;;4950236;28;25102;-72
2023/03/22 04:29:47;;;;;;;16.10;5.88;;;;;;;;;;4953627;28;25103;-71
2023/03/22 04:32:13;;;;;;;13.55;5.85;;;;;;;;;;4952532;28;25112;-73
2023/03/22 04:34:39;;;;;;;12.10;5.80;;;;;;;;;;4952580;28;25155;-71
2023/03/22 04:37:05;;;;;;;13.45;6.07;;;;;;;;;;4957671;28;25072;-72
2023/03/22 04:39:31;;;;;;;17.85;5.82;;;;;;;;;;4956406;28;25156;-73
2023/03/22 04:41:57;;;;;;;12.85;6.85;;;;;;;;;;4953048;28;25168;-72
2023/03/22 04:44:22;;;;;;;12.82;5.55;;;;;;;;;;4953641;28;25060;-73
2023/03/22 04:46:49;;;;;;;15.05;6.07;;;;;;;;;;4951339;28;25096;-74
2023/03/22 04:49:15;;;;;;;16.25;5.53;;;;;;;;;;4961191;28;25067;-73
2023/03/22 04:51:41;;;;;;;13.77;5.50;;;;;;;;;;4960491;28;25059;-74
2023/03/22 04:54:07;;;;;;;8.27;4.88;;;;;;;;;;4950676;28;25082;-71
2023/03/22 04:56:32;;;;;;;15.25;5.55;;;;;;;;;;4951888;28;25047;-73
2023/03/22 04:58:58;;;;;;;11.35;4.80;;;;;;;;;;4956153;28;25156;-70
2023/03/22 05:01:24;;;;;;;12.68;4.57;;;;;;;;;;4944129;28;25079;-73
2023/03/22 05:03:50;;;;;;;14.35;5.20;;;;;;;;;;4951646;28;25070;-73
2023/03/22 05:06:16;;;;;;;17.02;5.20;;;;;;;;;;4949394;28;25106;-73
2023/03/22 05:08:43;;;;;;;14.38;4.43;;;;;;;;;;4948095;28;25088;-72
2023/03/22 05:11:13;;;;;;;11.52;5.72;;;;;;;;;;4945585;28;25088;-73
2023/03/22 05:13:39;;;;;;;9.60;5.18;;;;;;;;;;4949373;28;25047;-73
2023/03/22 05:16:05;;;;;;;16.13;4.57;;;;;;;;;;4954202;28;25088;-71
2023/03/22 05:18:31;;;;;;;19.90;4.38;;;;;;;;;;4950266;28;25181;-72
2023/03/22 05:20:58;;;;;;;16.50;4.72;;;;;;;;;;4949571;28;25082;-70
2023/03/22 05:23:25;;;;;;;6.90;3.80;;;;;;;;;;4959082;28;25070;-70
2023/03/22 05:25:52;;;;;;;12.15;3.85;;;;;;;;;;4960667;28;25100;-72
2023/03/22 05:28:20;;;;;;;8.88;3.55;;;;;;;;;;4951107;28;25060;-70
2023/03/22 05:30:46;;;;;;;13.65;3.90;;;;;;;;;;4951826;28;25146;-72
2023/03/22 05:33:13;;;;;;;12.70;3.72;;;;;;;;;;4956920;28;25065;-73
2023/03/22 05:35:40;;;;;;;11.27;3.10;;;;;;;;;;4955866;28;25068;-71
2023/03/22 05:38:07;;;;;;;11.98;3.70;;;;;;;;;;4959467;28;25069;-74
2023/03/22 05:40:33;;;;;;;17.73;3.10;;;;;;;;;;4947071;28;25111;-72
2023/03/22 05:42:59;;;;;;;9.57;3.13;;;;;;;;;;4947696;28;25110;-73
2023/03/22 05:45:26;;;;;;;11.77;3.20;;;;;;;;;;4939685;28;25047;-75
2023/03/22 05:47:52;;;;;;;8.90;3.33;;;;;;;;;;4941292;28;25066;-74
2023/03/22 05:50:20;;;;;;;13.00;2.67;;;;;;;;;;4950700;28;25060;-74
2023/03/22 05:52:46;;;;;;;7.35;2.70;;;;;;;;;;4945188;28;25058;-72
2023/03/22 05:55:13;;;;;;;13.35;3.40;;;;;;;;;;4950817;28;25089;-71
2023/03/22 05:57:39;;;;;;;10.80;3.38;;;;;;;;;;4949951;28;25086;-73
2023/03/22 06:00:11;;;;;;;14.07;3.42;;;;;;;;;;4940647;28;25166;-73
2023/03/22 06:02:37;;;;;;;13.70;3.17;;;;;;;;;;4940864;28;25088;-73
2023/03/22 06:05:03;;;;;;;14.38;2.90;;;;;;;;;;4943858;28;25080;-73
2023/03/22 06:07:29;;;;;;;9.98;2.83;;;;;;;;;;4947815;28;25060;-73
2023/03/22 06:09:55;;;;;;;9.27;2.88;;;;;;;;;;4934946;28;25110;-71
2023/03/22 06:12:23;;;;;;;8.10;2.42;;;;;;;;;;4944787;28;25127;-73
2023/03/22 06:14:49;;;;;;;15.50;2.63;;;;;;;;;;4940811;28;25045;-72
2023/03/22 06:17:15;;;;;;;8.85;2.38;;;;;;;;;;4943286;28;25102;-73
2023/03/22 06:19:41;;;;;;;9.00;2.70;;;;;;;;;;4945773;28;25108;-73
2023/03/22 06:22:07;;;;;;;9.27;2.35;;;;;;;;;;4937951;28;25080;-72
2023/03/22 06:24:33;;;;;;;9.35;3.58;;;;;;;;;;4941935;28;25125;-76
2023/03/22 06:26:59;;;;;;;9.88;1.98;;;;;;;;;;4944800;28;25067;-73
2023/03/22 06:29:26;;;;;;;11.63;2.33;;;;;;;;;;4946557;28;25139;-74
2023/03/22 06:31:52;;;;;;;9.27;2.42;;;;;;;;;;4948457;28;25081;-73
2023/03/22 06:34:18;;;;;;;7.80;2.60;;;;;;;;;;4942185;28;25100;-73
2023/03/22 06:36:44;;;;;;;9.63;2.92;;;;;;;;;;4939205;28;25142;-73
2023/03/22 06:39:10;;;;;;;8.65;2.53;;;;;;;;;;4935435;28;25064;-75
2023/03/22 06:41:36;;;;;;;10.77;2.47;;;;;;;;;;4939739;28;25074;-73
2023/03/22 06:44:02;;;;;;;10.80;3.83;;;;;;;;;;4933852;28;25082;-73
2023/03/22 06:46:28;;;;;;;15.43;3.08;;;;;;;;;;4938255;28;25077;-73
2023/03/22 06:48:54;;;;;;;13.18;2.53;;;;;;;;;;4940322;28;25068;-70
2023/03/22 06:51:20;;;;;;;6.30;1.80;;;;;;;;;;4943605;28;25051;-72
2023/03/22 06:53:47;;;;;;;11.20;2.35;;;;;;;;;;4937485;28;25073;-71
2023/03/22 06:56:13;;;;;;;15.70;2.47;;;;;;;;;;4934734;28;25069;-72
2023/03/22 06:58:39;;;;;;;14.95;2.92;;;;;;;;;;4943612;28;25068;-72
2023/03/22 07:01:05;;;;;;;14.18;2.35;;;;;;;;;;4932240;28;25096;-73
2023/03/22 07:03:31;;;;;;;18.17;3.55;;;;;;;;;;4941500;28;25118;-72
2023/03/22 07:06:04;;;;;;;10.48;3.40;;;;;;;;;;4936540;28;25061;-74
2023/03/22 07:08:31;;;;;;;9.63;2.38;;;;;;;;;;4937903;28;25104;-72
2023/03/22 07:10:57;;;;;;;7.22;2.28;;;;;;;;;;4947246;28;25070;-73
2023/03/22 07:13:23;;;;;;;12.48;2.70;;;;;;;;;;4927842;28;25056;-76
2023/03/22 07:15:49;;;;;;;10.27;2.40;;;;;;;;;;4942904;28;25155;-76
2023/03/22 07:18:15;;;;;;;9.70;2.58;;;;;;;;;;4939066;28;25072;-76
2023/03/22 07:20:41;;;;;;;10.30;2.38;;;;;;;;;;4931503;28;25075;-76
2023/03/22 07:23:09;;;;;;;6.15;1.88;;;;;;;;;;4945448;28;25074;-77
2023/03/22 07:25:35;;;;;;;16.20;2.28;;;;;;;;;;4939871;28;25061;-77
2023/03/22 07:28:01;;;;;;;7.47;2.28;;;;;;;;;;4942508;28;25061;-76
2023/03/22 07:30:27;;;;;;;6.65;2.17;;;;;;;;;;4938548;28;25361;-76
2023/03/22 07:32:53;;;;;;;10.27;2.80;;;;;;;;;;4936365;28;25083;-75
2023/03/22 07:35:19;;;;;;;11.77;2.05;;;;;;;;;;4944659;28;25156;-73
2023/03/22 07:37:47;;;;;;;5.68;2.10;;;;;;;;;;4936181;28;25046;-74
2023/03/22 07:40:13;;;;;;;11.60;2.35;;;;;;;;;;4936326;28;25138;-76
2023/03/22 07:42:39;;;;;;;12.00;2.45;;;;;;;;;;4937694;28;25068;-74
2023/03/22 07:45:05;;;;;;;8.15;2.17;;;;;;;;;;4945749;28;25068;-76
2023/03/22 07:47:32;;;;;;;7.68;2.22;;;;;;;;;;4942866;28;25136;-77
2023/03/22 07:49:58;;;;;;;10.55;2.42;;;;;;;;;;4945515;28;25079;-75
2023/03/22 07:52:24;;;;;;;10.27;2.55;;;;;;;;;;4943374;28;25181;-74
2023/03/22 07:54:50;;;;;;;6.10;1.98;;;;;;;;;;4937507;28;25094;-72
2023/03/22 07:57:16;;;;;;;8.63;2.35;;;;;;;;;;4945682;28;25073;-74
2023/03/22 07:59:43;;;;;;;5.30;2.20;;;;;;;;;;4941954;28;25054;-76
2023/03/22 08:02:10;;;;;;;7.38;2.08;;;;;;;;;;4940078;28;25076;-74
2023/03/22 08:04:36;;;;;;;11.75;2.83;;;;;;;;;;4942616;28;25070;-74
2023/03/22 08:07:02;;;;;;;8.65;2.60;;;;;;;;;;4943779;28;25087;-75
2023/03/22 08:09:28;;;;;;;6.10;2.33;;;;;;;;;;4950531;28;25146;-76
2023/03/22 08:11:54;;;;;;;13.15;2.55;;;;;;;;;;4941369;28;25092;-75
2023/03/22 08:14:20;;;;;;;6.97;2.17;;;;;;;;;;4943165;28;25105;-74
2023/03/22 08:16:46;;;;;;;12.32;2.13;;;;;;;;;;4939379;28;25053;-75
2023/03/22 08:19:12;;;;;;;11.85;2.30;;;;;;;;;;4938989;28;25063;-72
2023/03/22 08:21:38;;;;;;;8.02;2.20;;;;;;;;;;4938441;28;25053;-74
2023/03/22 08:24:06;;;;;;;13.82;2.60;;;;;;;;;;4935283;28;25061;-76
2023/03/22 08:26:32;;;;;;;10.98;2.33;;;;;;;;;;4948171;28;25051;-72
2023/03/22 08:28:58;;;;;;;8.13;3.05;;;;;;;;;;4946872;28;25082;-74
2023/03/22 08:31:25;;;;;;;13.52;1.85;;;;;;;;;;4941161;28;25072;-73
2023/03/22 08:33:51;;;;;;;16.67;2.20;;;;;;;;;;4943646;28;25087;-73
2023/03/22 08:36:18;;;;;;;9.65;2.40;;;;;;;;;;4934120;28;25075;-73
2023/03/22 08:38:44;;;;;;;15.73;2.80;;;;;;;;;;4948996;28;25109;-71
2023/03/22 08:41:11;;;;;;;17.35;3.88;;;;;;;;;;4938495;28;25106;-72
2023/03/22 08:43:37;;;;;;;13.10;3.00;;;;;;;;;;4942574;28;25070;-73
2023/03/22 08:46:03;;;;;;;8.30;2.10;;;;;;;;;;4945398;28;25123;-73
2023/03/22 08:48:29;;;;;;;12.25;2.75;;;;;;;;;;4941887;28;25103;-73
2023/03/22 08:50:55;;;;;;;8.57;2.30;;;;;;;;;;4952079;28;25142;-74
2023/03/22 08:53:21;;;;;;;10.48;2.88;;;;;;;;;;4947024;28;25073;-70
2023/03/22 08:55:47;;;;;;;11.77;2.75;;;;;;;;;;4946099;28;25149;-71
2023/03/22 08:58:15;;;;;;;10.65;2.47;;;;;;;;;;4940919;28;25107;-72
2023/03/22 09:00:42;;;;;;;9.95;2.53;;;;;;;;;;4945188;28;25060;-71
2023/03/22 09:03:08;;;;;;;17.45;2.47;;;;;;;;;;4941421;28;25066;-71
2023/03/22 09:05:34;;;;;;;9.30;2.50;;;;;;;;;;4938523;28;25079;-72
2023/03/22 09:08:01;;;;;;;12.43;2.97;;;;;;;;;;4948181;28;25092;-73
2023/03/22 09:10:27;;;;;;;17.38;3.25;;;;;;;;;;4935712;28;25103;-71
2023/03/22 09:12:53;;;;;;;10.18;2.55;;;;;;;;;;4946492;28;25058;-72
2023/03/22 09:15:19;;;;;;;16.05;3.50;;;;;;;;;;4935946;28;25063;-72
2023/03/22 09:17:45;;;;;;;8.98;2.95;;;;;;;;;;4941265;28;25162;-74
2023/03/22 09:20:11;;;;;;;5.93;2.75;;;;;;;;;;4947316;28;25117;-75
2023/03/22 09:22:37;;;;;;;14.10;2.60;;;;;;;;;;4939129;28;25070;-76
2023/03/22 09:25:03;;;;;;;9.73;2.75;;;;;;;;;;4945018;28;25147;-74
2023/03/22 09:27:30;;;;;;;13.05;3.05;;;;;;;;;;4949572;28;25148;-74
2023/03/22 09:29:56;;;;;;;17.10;3.22;;;;;;;;;;4945630;28;25104;-73
2023/03/22 09:32:22;;;;;;;9.05;2.53;;;;;;;;;;4937614;28;25054;-76
2023/03/22 09:34:48;;;;;;;19.83;2.70;;;;;;;;;;4938952;28;25075;-76
2023/03/22 09:37:14;;;;;;;8.25;2.78;;;;;;;;;;4945916;28;25099;-73
2023/03/22 09:39:40;;;;;;;9.10;2.53;;;;;;;;;;4942758;28;25095;-75
2023/03/22 09:42:25;;;;;;;13.75;3.10;;;;;;;;;;4931566;28;25077;-76
2023/03/22 09:44:51;;;;;;;11.63;2.42;;;;;;;;;;4941586;28;25046;-76
2023/03/22 09:47:21;;;;;;;18.40;3.17;;;;;;;;;;4943261;28;25075;-74
2023/03/22 09:49:51;;;;;;;9.25;2.55;;;;;;;;;;4947027;28;25073;-74
2023/03/22 09:52:17;;;;;;;11.02;3.13;;;;;;;;;;4941992;28;25077;-77
2023/03/22 09:54:45;;;;;;;9.75;3.22;;;;;;;;;;4945517;28;25059;-77
2023/03/22 09:57:14;;;;;;;11.45;3.25;;;;;;;;;;4942443;28;25092;-75
2023/03/22 09:59:46;;;;;;;8.80;2.65;;;;;;;;;;4947011;28;25157;-72
2023/03/22 10:02:21;;;;;;;11.45;2.85;;;;;;;;;;4943846;28;25109;-74
2023/03/22 10:04:57;;;;;;;8.25;2.85;;;;;;;;;;4938416;28;25068;-74
2023/03/22 10:07:26;;;;;;;13.77;2.42;;;;;;;;;;4941214;28;25067;-72
2023/03/22 10:10:17;;;;;;;22.90;2.88;;;;;;;;;;4940789;28;25070;-75
2023/03/22 10:12:49;;;;;;;13.80;3.00;;;;;;;;;;4943040;28;25121;-74
2023/03/22 10:15:17;;;;;;;10.48;2.55;;;;;;;;;;4938619;28;25065;-75
2023/03/22 10:17:46;;;;;;;7.15;2.45;;;;;;;;;;4937263;28;25155;-73
2023/03/22 10:20:19;;;;;;;11.55;4.07;;;;;;;;;;4945504;28;25066;-73
2023/03/22 10:22:45;;;;;;;10.20;2.72;;;;;;;;;;4941312;28;25063;-72
2023/03/22 10:25:15;;;;;;;10.23;2.20;;;;;;;;;;4941592;28;25062;-74
2023/03/22 10:27:41;;;;;;;9.07;2.53;;;;;;;;;;4935385;28;25071;-73
2023/03/22 10:30:24;;;;;;;9.68;2.53;;;;;;;;;;4940221;28;25073;-73
2023/03/22 10:32:50;;;;;;;6.60;2.25;;;;;;;;;;4944432;28;25061;-73
2023/03/22 10:35:16;;;;;;;9.20;3.22;;;;;;;;;;4930364;28;25174;-73
2023/03/22 10:37:44;;;;;;;7.72;2.47;;;;;;;;;;4941215;28;25094;-75
2023/03/22 10:40:14;;;;;;;9.85;2.65;;;;;;;;;;4942997;28;25058;-71
2023/03/22 10:42:41;;;;;;;10.70;2.22;;;;;;;;;;4944649;28;25101;-74
2023/03/22 10:45:08;;;;;;;12.02;2.83;;;;;;;;;;4942524;28;25094;-74
2023/03/22 10:47:46;;;;;;;6.20;1.83;;;;;;;;;;4941993;28;25071;-72
2023/03/22 10:50:27;;;;;;;6.70;2.45;;;;;;;;;;4932697;28;25094;-74
2023/03/22 10:53:14;;;;;;;4.85;2.20;;;;;;;;;;4943682;28;25136;-72
2023/03/22 10:55:40;;;;;;;10.55;2.15;;;;;;;;;;4943580;28;25077;-73
2023/03/22 10:58:17;;;;;;;4.60;2.00;;;;;;;;;;4940628;28;25127;-72
2023/03/22 11:00:47;;;;;;;12.30;2.45;;;;;;;;;;4943817;28;25140;-73
2023/03/22 11:03:36;;;;;;;2.72;1.95;;;;;;;;;;4938355;28;25511;-74
2023/03/22 11:06:09;;;;;;;10.75;2.10;;;;;;;;;;4935500;28;25146;-73
2023/03/22 11:08:49;;;;;;;16.67;2.70;;;;;;;;;;4944399;28;25094;-73
2023/03/22 11:11:24;;;;;;;3.50;1.65;;;;;;;;;;4940268;28;25082;-71
2023/03/22 11:14:02;;;;;;;10.02;2.20;;;;;;;;;;4946486;28;25062;-72
2023/03/22 11:16:28;;;;;;;8.90;2.53;;;;;;;;;;4941665;28;25085;-71
2023/03/22 11:18:56;;;;;;;16.42;2.53;;;;;;;;;;4941420;28;25091;-72
2023/03/22 11:21:25;;;;;;;6.75;1.80;;;;;;;;;;4966769;28;25103;-73
2023/03/22 11:24:00;;;;;;;8.07;1.85;;;;;;;;;;4948841;28;25124;-73
2023/03/22 11:26:32;;;;;;;10.85;2.45;;;;;;;;;;4933469;28;25059;-73
2023/03/22 11:29:04;;;;;;;5.93;2.50;;;;;;;;;;4941409;28;25084;-73
2023/03/22 11:31:47;;;;;;;11.68;3.17;;;;;;;;;;4933859;28;25072;-73
2023/03/22 11:34:17;;;;;;;7.70;2.05;;;;;;;;;;4942315;28;25083;-72
2023/03/22 11:36:44;;;;;;;3.78;1.83;;;;;;;;;;4946313;28;25152;-74
2023/03/22 11:39:11;;;;;;;8.40;2.28;;;;;;;;;;4960926;28;25140;-74
2023/03/22 11:41:39;;;;;;;4.55;1.70;;;;;;;;;;4947828;28;25077;-73
2023/03/22 11:44:07;;;;;;;7.57;1.60;;;;;;;;;;4953811;28;25086;-74
2023/03/22 11:46:34;;;;;;;8.27;2.40;;;;;;;;;;4972380;28;25073;-74
2023/03/22 11:49:03;;;;;;;3.67;1.90;;;;;;;;;;4962039;28;25080;-73
2023/03/22 11:51:36;;;;;;;8.45;2.13;;;;;;;;;;4950722;28;25104;-73
2023/03/22 11:54:22;;;;;;;8.65;2.50;;;;;;;;;;4956152;28;25090;-72
2023/03/22 11:56:49;;;;;;;12.13;2.63;;;;;;;;;;4953846;28;25112;-74
2023/03/22 11:59:20;;;;;;;7.78;2.83;;;;;;;;;;4964592;28;25095;-72
2023/03/22 12:02:00;;;;;;;7.03;2.13;;;;;;;;;;4955589;28;25160;-75
2023/03/22 12:04:27;;;;;;;7.10;1.98;;;;;;;;;;4958040;28;25076;-73
2023/03/22 12:06:56;;;;;;;7.07;3.25;;;;;;;;;;4953697;28;25063;-71
2023/03/22 12:09:22;;;;;;;8.55;2.53;;;;;;;;;;4962971;28;25077;-73
2023/03/22 12:11:50;;;;;;;8.02;2.25;;;;;;;;;;4967011;28;25107;-75
2023/03/22 12:14:21;;;;;;;5.38;2.20;;;;;;;;;;4965703;28;25069;-74
2023/03/22 12:16:49;;;;;;;5.65;2.05;;;;;;;;;;4979426;28;25100;-71
2023/03/22 12:19:27;;;;;;;8.90;2.13;;;;;;;;;;4960442;28;25110;-73
2023/03/22 12:21:55;;;;;;;7.07;2.55;;;;;;;;;;4942152;28;25066;-72
2023/03/22 12:24:24;;;;;;;8.05;3.35;;;;;;;;;;4950988;28;25058;-73
2023/03/22 12:26:53;;;;;;;2.95;1.90;;;;;;;;;;4937486;28;25082;-73
2023/03/22 12:29:19;;;;;;;8.50;2.05;;;;;;;;;;4947124;28;25167;-72
2023/03/22 12:31:52;;;;;;;4.22;2.30;;;;;;;;;;4945277;28;25076;-74
2023/03/22 12:34:19;;;;;;;6.32;2.30;;;;;;;;;;4950121;28;25082;-75
2023/03/22 12:36:55;;;;;;;4.63;2.40;;;;;;;;;;4945789;28;25063;-75
2023/03/22 12:39:30;;;;;;;5.43;2.38;;;;;;;;;;4946630;28;25153;-75
2023/03/22 12:41:59;;;;;;;7.05;2.83;;;;;;;;;;4948217;28;25062;-75
2023/03/22 12:44:25;;;;;;;8.07;2.08;;;;;;;;;;4940437;28;25066;-75
2023/03/22 12:46:57;;;;;;;8.68;2.60;;;;;;;;;;4943239;28;25068;-74
2023/03/22 12:49:43;;;;;;;5.82;2.95;;;;;;;;;;4940480;28;25137;-71
2023/03/22 12:52:12;;;;;;;9.15;2.58;;;;;;;;;;4946499;28;25080;-74
2023/03/22 12:54:38;;;;;;;6.32;2.80;;;;;;;;;;4942194;28;25070;-74
2023/03/22 12:57:04;;;;;;;6.60;2.63;;;;;;;;;;4940697;28;25062;-73
2023/03/22 12:59:31;;;;;;;4.80;2.40;;;;;;;;;;4939825;28;25089;-74
2023/03/22 13:01:57;;;;;;;5.20;2.17;;;;;;;;;;4938069;28;25051;-73
2023/03/22 13:04:32;;;;;;;7.35;2.33;;;;;;;;;;4938895;28;25059;-73
2023/03/22 13:07:08;;;;;;;7.35;2.97;;;;;;;;;;4942712;28;25150;-73
2023/03/22 13:09:39;;;;;;;8.05;3.05;;;;;;;;;;4936981;28;25072;-74
2023/03/22 13:12:17;;;;;;;6.55;2.72;;;;;;;;;;4937870;28;25065;-71
2023/03/22 13:14:54;;;;;;;7.60;2.75;;;;;;;;;;4939901;28;25067;-74
2023/03/22 13:17:23;;;;;;;13.05;2.72;;;;;;;;;;4944838;28;25083;-73
2023/03/22 13:20:22;;;;;;;9.65;3.08;;;;;;;;;;4937220;28;25084;-74
2023/03/22 13:22:48;;;;;;;9.30;2.33;;;;;;;;;;4941580;28;25142;-73
2023/03/22 13:25:22;;;;;;;5.97;2.05;;;;;;;;;;4943335;28;25059;-74
2023/03/22 13:27:51;;;;;;;7.57;2.97;;;;;;;;;;4946256;28;25077;-74
2023/03/22 13:30:32;;;;;;;4.10;2.25;;;;;;;;;;4941901;28;25152;-74
2023/03/22 13:33:02;;;;;;;7.25;2.83;;;;;;;;;;4948133;28;25062;-73
2023/03/22 13:35:37;;;;;;;9.85;2.20;;;;;;;;;;4939085;28;25072;-73
2023/03/22 13:38:07;;;;;;;8.27;2.50;;;;;;;;;;4939660;28;25074;-73
2023/03/22 13:40:36;;;;;;;6.60;2.45;;;;;;;;;;4941742;28;25093;-73
2023/03/22 13:43:21;;;;;;;4.13;2.78;;;;;;;;;;4939354;28;25104;-73
2023/03/22 13:46:09;;;;;;;4.28;2.40;;;;;;;;;;4936998;28;25056;-72
2023/03/22 13:48:47;;;;;;;5.82;2.65;;;;;;;;;;4934856;28;25062;-72
2023/03/22 13:51:13;;;;;;;5.45;2.15;;;;;;;;;;4947561;28;25059;-74
2023/03/22 13:53:42;;;;;;;11.07;3.33;;;;;;;;;;4948198;28;25066;-73
2023/03/22 13:56:12;;;;;;;7.85;4.05;;;;;;;;;;4943441;28;25057;-74
2023/03/22 13:58:53;;;;;;;4.70;2.63;;;;;;;;;;4940469;28;25104;-72
2023/03/22 14:01:22;;;;;;;8.55;2.85;;;;;;;;;;4943245;28;25070;-74
2023/03/22 14:03:49;;;;;;;6.53;2.42;;;;;;;;;;4937274;28;25066;-72
2023/03/22 14:06:30;;;;;;;9.10;3.50;;;;;;;;;;4940744;28;25064;-72
2023/03/22 14:09:00;;;;;;;8.93;2.80;;;;;;;;;;4946646;28;25065;-73
2023/03/22 14:11:37;;;;;;;9.02;2.75;;;;;;;;;;4944202;28;25044;-74
2023/03/22 14:14:06;;;;;;;6.05;2.40;;;;;;;;;;4938890;28;25117;-74
2023/03/22 14:16:38;;;;;;;6.35;2.80;;;;;;;;;;4941629;28;25080;-73
2023/03/22 14:19:05;;;;;;;4.72;1.98;;;;;;;;;;4942200;28;25150;-73
2023/03/22 14:21:33;;;;;;;4.40;2.10;;;;;;;;;;4950697;28;25146;-74
2023/03/22 14:24:00;;;;;;;6.35;3.08;;;;;;;;;;4935594;28;25062;-73
2023/03/22 14:26:36;;;;;;;4.88;2.10;;;;;;;;;;4940666;28;25085;-73
2023/03/22 14:29:10;;;;;;;6.22;2.85;;;;;;;;;;4942390;28;25137;-74
2023/03/22 14:31:36;;;;;;;7.43;2.72;;;;;;;;;;4939613;28;25102;-75
2023/03/22 14:34:04;;;;;;;6.70;2.33;;;;;;;;;;4936297;28;25109;-74
2023/03/22 14:36:34;;;;;;;5.97;2.53;;;;;;;;;;4947073;28;25045;-73
2023/03/22 14:39:03;;;;;;;7.80;3.00;;;;;;;;;;4946466;28;25050;-75
2023/03/22 14:41:29;;;;;;;11.48;3.08;;;;;;;;;;4942720;28;25055;-73
2023/03/22 14:43:59;;;;;;;5.32;2.55;;;;;;;;;;4943896;28;25142;-73
2023/03/22 14:46:32;;;;;;;10.00;3.25;;;;;;;;;;4939033;28;25158;-72